Time;durP1;ratioP1;P1;durP2;ratioP2;P2;SDS_P1;SDS_P2;PMS_P1;PMS_P2;Temp;Humidity;BMP_temperature;BMP_pressure;BME280_temperature;BME280_humidity;BME280_pressure;Samples;Min_cycle;Max_cycle;Signal;HPM_P1;HPM_P2
2021/10/04 00:03:23;;;;;;;;;;;22.60;50.00;;;;;;5065621;28;20161;-64
2021/10/04 00:05:49;;;;;;;;;;;22.60;50.00;;;;;;5052318;28;20605;-66
2021/10/04 00:08:16;;;;;;;;;;;22.60;50.00;;;;;;5070570;28;20335;-66
2021/10/04 00:10:44;;;;;;;;;;;22.60;50.00;;;;;;5063528;28;19935;-66
2021/10/04 00:13:11;;;;;;;;;;;22.50;50.00;;;;;;5048375;28;20023;-63
2021/10/04 00:15:38;;;;;;;;;;;22.50;50.10;;;;;;5070911;28;20339;-66
2021/10/04 00:18:05;;;;;;;;;;;22.50;50.10;;;;;;5070487;28;19964;-67
2021/10/04 00:23:23;;;;;;;;;;;22.50;50.20;;;;;;5067213;28;19931;-66
2021/10/04 00:25:50;;;;;;;;;;;22.50;50.20;;;;;;5036401;28;19924;-66
2021/10/04 00:28:17;;;;;;;;;;;22.50;50.30;;;;;;5052046;28;19924;-66
2021/10/04 00:30:44;;;;;;;;;;;22.50;50.30;;;;;;5063390;28;19960;-67
2021/10/04 00:33:11;;;;;;;;;;;22.50;50.30;;;;;;5063209;28;20011;-66
2021/10/04 00:35:38;;;;;;;;;;;22.50;50.30;;;;;;5070019;28;20380;-66
2021/10/04 00:38:05;;;;;;;;;;;22.50;50.30;;;;;;5070321;28;19975;-67
2021/10/04 00:40:34;;;;;;;;;;;22.50;50.30;;;;;;5064086;28;19931;-66
2021/10/04 00:43:01;;;;;;;;;;;22.50;50.30;;;;;;5068069;28;19925;-67
2021/10/04 00:45:29;;;;;;;;;;;22.50;50.30;;;;;;5070165;28;20122;-66
2021/10/04 00:47:56;;;;;;;;;;;22.50;50.30;;;;;;5069871;28;19928;-67
2021/10/04 00:50:23;;;;;;;;;;;22.50;50.30;;;;;;5047201;28;19925;-67
2021/10/04 00:52:50;;;;;;;;;;;22.50;50.30;;;;;;5066461;28;20003;-67
2021/10/04 00:55:18;;;;;;;;;;;22.50;50.30;;;;;;5069904;28;19976;-67
2021/10/04 00:57:45;;;;;;;;;;;22.50;50.30;;;;;;5069656;28;20116;-67
2021/10/04 01:00:14;;;;;;;;;;;22.50;50.30;;;;;;5064631;28;20134;-64
2021/10/04 01:02:41;;;;;;;;;;;22.50;50.30;;;;;;5064653;28;19931;-67
2021/10/04 01:05:09;;;;;;;;;;;22.50;50.30;;;;;;5069782;28;20392;-67
2021/10/04 01:07:36;;;;;;;;;;;22.50;50.30;;;;;;5069273;28;20117;-66
2021/10/04 01:10:04;;;;;;;;;;;22.50;50.30;;;;;;5066167;28;20296;-64
2021/10/04 01:12:31;;;;;;;;;;;22.40;50.30;;;;;;5064701;28;19982;-67
2021/10/04 01:14:57;;;;;;;;;;;22.40;50.30;;;;;;5069464;28;19938;-66
2021/10/04 01:17:24;;;;;;;;;;;22.50;50.30;;;;;;5068827;28;20018;-66
2021/10/04 01:19:51;;;;;;;;;;;22.40;50.30;;;;;;5067714;28;19992;-67
2021/10/04 01:22:18;;;;;;;;;;;22.40;50.30;;;;;;5057665;28;20620;-66
2021/10/04 01:24:45;;;;;;;;;;;22.50;50.40;;;;;;5069352;28;20037;-67
2021/10/04 01:27:12;;;;;;;;;;;22.50;50.40;;;;;;5069244;28;19984;-67
2021/10/04 01:29:46;;;;;;;;;;;22.50;50.40;;;;;;5068321;28;19967;-67
2021/10/04 01:32:13;;;;;;;;;;;22.40;50.30;;;;;;5046219;28;19932;-64
2021/10/04 01:34:40;;;;;;;;;;;22.40;50.30;;;;;;5068871;28;19951;-67
2021/10/04 01:37:07;;;;;;;;;;;22.50;50.30;;;;;;5069045;28;19963;-67
2021/10/04 01:39:33;;;;;;;;;;;22.40;50.30;;;;;;5069013;28;19967;-66
2021/10/04 01:42:01;;;;;;;;;;;22.50;50.40;;;;;;5060319;28;19928;-66
2021/10/04 01:44:27;;;;;;;;;;;22.40;50.40;;;;;;5069058;28;20396;-63
2021/10/04 01:46:54;;;;;;;;;;;22.40;50.50;;;;;;5068809;28;19925;-67
2021/10/04 01:49:21;;;;;;;;;;;22.40;50.50;;;;;;5068926;28;20227;-67
2021/10/04 01:51:48;;;;;;;;;;;22.40;50.50;;;;;;5060188;28;19960;-66
2021/10/04 01:54:15;;;;;;;;;;;22.40;50.50;;;;;;5068444;28;20284;-66
2021/10/04 01:56:42;;;;;;;;;;;22.40;50.50;;;;;;5068831;28;20304;-67
2021/10/04 01:59:09;;;;;;;;;;;22.40;50.50;;;;;;5051003;28;19947;-64
2021/10/04 02:01:36;;;;;;;;;;;22.40;51.10;;;;;;5059401;28;19970;-64
2021/10/04 02:04:03;;;;;;;;;;;22.40;50.60;;;;;;5068262;28;20020;-66
2021/10/04 02:06:30;;;;;;;;;;;22.40;50.60;;;;;;5068690;28;19960;-67
2021/10/04 02:08:57;;;;;;;;;;;22.40;50.60;;;;;;5068155;28;20011;-67
2021/10/04 02:11:24;;;;;;;;;;;22.40;50.60;;;;;;5061245;28;19929;-64
2021/10/04 02:13:51;;;;;;;;;;;22.40;50.60;;;;;;5067933;28;19951;-67
2021/10/04 02:16:18;;;;;;;;;;;22.40;50.60;;;;;;5069017;28;20023;-66
2021/10/04 02:18:45;;;;;;;;;;;22.40;50.60;;;;;;5068145;28;19924;-66
2021/10/04 02:21:12;;;;;;;;;;;22.40;50.60;;;;;;5043529;28;20019;-66
2021/10/04 02:23:39;;;;;;;;;;;22.30;50.50;;;;;;5049976;28;20384;-67
2021/10/04 02:26:06;;;;;;;;;;;22.40;50.60;;;;;;5068840;28;19955;-67
2021/10/04 02:28:33;;;;;;;;;;;22.30;50.60;;;;;;5050211;28;20065;-67
2021/10/04 02:31:00;;;;;;;;;;;22.30;50.60;;;;;;5061618;28;19968;-66
2021/10/04 02:33:27;;;;;;;;;;;22.30;50.60;;;;;;5067191;28;20213;-66
2021/10/04 02:35:54;;;;;;;;;;;22.30;50.60;;;;;;5068137;28;19979;-66
2021/10/04 02:38:21;;;;;;;;;;;22.40;50.60;;;;;;5068535;28;20235;-67
2021/10/04 02:40:49;;;;;;;;;;;22.30;50.60;;;;;;5061652;28;20011;-67
2021/10/04 02:43:18;;;;;;;;;;;22.30;51.10;;;;;;5065355;28;20015;-67
2021/10/04 02:45:46;;;;;;;;;;;22.40;50.60;;;;;;5068669;28;19925;-67
2021/10/04 02:48:13;;;;;;;;;;;22.40;50.60;;;;;;5068277;28;19924;-66
2021/10/04 02:50:40;;;;;;;;;;;22.30;50.50;;;;;;5060499;28;20661;-64
2021/10/04 02:53:08;;;;;;;;;;;22.40;50.50;;;;;;5063728;28;20160;-67
2021/10/04 02:55:35;;;;;;;;;;;22.40;50.50;;;;;;5067839;28;20469;-66
2021/10/04 02:58:02;;;;;;;;;;;22.40;50.50;;;;;;5050670;28;20039;-67
2021/10/04 03:00:32;;;;;;;;;;;22.40;50.50;;;;;;5044142;28;19933;-67
2021/10/04 03:02:59;;;;;;;;;;;22.40;50.50;;;;;;5046773;28;19924;-66
2021/10/04 03:05:26;;;;;;;;;;;22.40;50.60;;;;;;5071645;28;20210;-67
2021/10/04 03:07:53;;;;;;;;;;;22.30;50.60;;;;;;5071911;28;19980;-67
2021/10/04 03:10:20;;;;;;;;;;;22.30;50.60;;;;;;5067063;28;19929;-64
2021/10/04 03:12:47;;;;;;;;;;;22.30;50.70;;;;;;5068883;28;20278;-67
2021/10/04 03:15:14;;;;;;;;;;;22.30;50.70;;;;;;5071704;28;19925;-66
2021/10/04 03:17:41;;;;;;;;;;;22.30;50.70;;;;;;5071783;28;19925;-67
2021/10/04 03:20:09;;;;;;;;;;;22.30;50.70;;;;;;5068565;28;20011;-67
2021/10/04 03:22:36;;;;;;;;;;;22.30;50.70;;;;;;5066771;28;20328;-67
2021/10/04 03:25:04;;;;;;;;;;;22.30;50.80;;;;;;5070776;28;19924;-67
2021/10/04 03:27:31;;;;;;;;;;;22.30;50.80;;;;;;5071849;28;19978;-67
2021/10/04 03:29:59;;;;;;;;;;;22.30;50.80;;;;;;5067815;28;20011;-66
2021/10/04 03:32:26;;;;;;;;;;;22.30;50.80;;;;;;5047532;28;19999;-66
2021/10/04 03:34:52;;;;;;;;;;;22.30;50.80;;;;;;5071465;28;20031;-66
2021/10/04 03:37:19;;;;;;;;;;;22.30;50.80;;;;;;5070794;28;19924;-67
2021/10/04 03:39:46;;;;;;;;;;;22.30;50.80;;;;;;5068412;28;20004;-64
2021/10/04 03:42:13;;;;;;;;;;;22.30;50.70;;;;;;5065945;28;19924;-66
2021/10/04 03:44:40;;;;;;;;;;;22.30;50.70;;;;;;5070076;28;19928;-63
2021/10/04 03:47:07;;;;;;;;;;;22.30;50.70;;;;;;5070826;28;19928;-67
2021/10/04 03:49:34;;;;;;;;;;;22.30;50.70;;;;;;5070598;28;19925;-66
2021/10/04 03:52:01;;;;;;;;;;;22.30;50.70;;;;;;5065207;28;20015;-67
2021/10/04 03:54:29;;;;;;;;;;;22.30;50.70;;;;;;5070368;28;20435;-66
2021/10/04 03:56:56;;;;;;;;;;;22.30;50.70;;;;;;5071145;28;19967;-66
2021/10/04 03:59:22;;;;;;;;;;;22.30;50.70;;;;;;5070268;28;20015;-67
2021/10/04 04:01:49;;;;;;;;;;;22.30;50.70;;;;;;5062634;28;19983;-66
2021/10/04 04:04:17;;;;;;;;;;;22.30;50.70;;;;;;5052520;28;19924;-67
2021/10/04 04:06:44;;;;;;;;;;;22.30;50.70;;;;;;5070538;28;19998;-67
2021/10/04 04:09:11;;;;;;;;;;;22.30;50.70;;;;;;5070274;28;20259;-67
2021/10/04 04:11:38;;;;;;;;;;;22.30;50.70;;;;;;5061580;28;20024;-66
2021/10/04 04:14:05;;;;;;;;;;;22.30;50.70;;;;;;5068820;28;19964;-67
2021/10/04 04:16:32;;;;;;;;;;;22.30;50.70;;;;;;5070437;28;20137;-67
2021/10/04 04:18:59;;;;;;;;;;;22.30;50.70;;;;;;5070213;28;19928;-67
2021/10/04 04:21:26;;;;;;;;;;;22.30;50.70;;;;;;5062214;28;19967;-66
2021/10/04 04:24:16;;;;;;;;;;;22.30;50.70;;;;;;5069918;28;19950;-67
2021/10/04 04:26:44;;;;;;;;;;;22.30;50.70;;;;;;5069661;28;19924;-67
2021/10/04 04:29:11;;;;;;;;;;;22.30;50.70;;;;;;5053018;28;19935;-67
2021/10/04 04:31:38;;;;;;;;;;;22.30;50.60;;;;;;5056947;28;20027;-67
2021/10/04 04:34:05;;;;;;;;;;;22.30;50.60;;;;;;5069992;28;19932;-66
2021/10/04 04:36:32;;;;;;;;;;;22.30;50.60;;;;;;5068450;28;19934;-67
2021/10/04 04:38:59;;;;;;;;;;;22.30;50.60;;;;;;5069799;28;19928;-67
2021/10/04 04:41:26;;;;;;;;;;;22.30;50.60;;;;;;5059538;28;20065;-64
2021/10/04 04:43:53;;;;;;;;;;;22.30;50.60;;;;;;5065474;28;19930;-67
2021/10/04 04:46:19;;;;;;;;;;;22.30;50.50;;;;;;5070316;28;19968;-66
2021/10/04 04:48:47;;;;;;;;;;;22.30;50.60;;;;;;5069579;28;19924;-66
2021/10/04 04:51:26;;;;;;;;;;;22.30;50.60;;;;;;5062080;28;20597;-66
2021/10/04 04:53:53;;;;;;;;;;;22.30;50.70;;;;;;5069093;28;20032;-66
2021/10/04 04:56:20;;;;;;;;;;;22.30;50.70;;;;;;5067793;28;19925;-67
2021/10/04 04:58:47;;;;;;;;;;;22.30;50.70;;;;;;5065158;28;20019;-67
2021/10/04 05:01:13;;;;;;;;;;;22.30;50.70;;;;;;5061198;28;20546;-68
2021/10/04 05:03:41;;;;;;;;;;;22.30;50.70;;;;;;5069163;28;19978;-66
2021/10/04 05:06:08;;;;;;;;;;;22.30;50.70;;;;;;5068957;28;19946;-67
2021/10/04 05:08:35;;;;;;;;;;;22.30;50.60;;;;;;5045946;28;19924;-67
2021/10/04 05:11:02;;;;;;;;;;;22.40;50.50;;;;;;5052705;28;20019;-64
2021/10/04 05:13:29;;;;;;;;;;;22.40;50.30;;;;;;5051866;28;19991;-67
2021/10/04 05:15:56;;;;;;;;;;;22.40;50.20;;;;;;5056659;28;20019;-66
2021/10/04 05:18:23;;;;;;;;;;;22.50;50.10;;;;;;5056224;28;20632;-67
2021/10/04 05:23:45;;;;;;;;;;;22.50;49.90;;;;;;5057702;28;20016;-63
2021/10/04 05:26:13;;;;;;;;;;;22.50;49.90;;;;;;5055693;28;19932;-62
2021/10/04 05:28:40;;;;;;;;;;;22.50;49.80;;;;;;5060642;28;19964;-62
2021/10/04 05:31:30;;;;;;;;;;;22.50;49.80;;;;;;5050623;28;20011;-65
2021/10/04 05:34:05;;;;;;;;;;;22.50;49.80;;;;;;5051793;28;20316;-62
2021/10/04 05:36:32;;;;;;;;;;;22.50;49.90;;;;;;5057128;28;19976;-63
2021/10/04 05:39:00;;;;;;;;;;;22.50;50.10;;;;;;5059951;28;19954;-65
2021/10/04 05:44:51;;;;;;;;;;;22.50;50.20;;;;;;5056360;28;19989;-63
2021/10/04 05:47:19;;;;;;;;;;;22.60;50.30;;;;;;5048721;28;19936;-64
2021/10/04 05:49:46;;;;;;;;;;;22.60;50.20;;;;;;5056117;28;19931;-63
2021/10/04 05:52:28;;;;;;;;;;;22.60;50.10;;;;;;5049176;28;19960;-63
2021/10/04 05:55:02;;;;;;;;;;;22.70;49.90;;;;;;5042591;28;19939;-64
2021/10/04 05:57:31;;;;;;;;;;;22.70;49.70;;;;;;5051304;28;20130;-63
2021/10/04 05:59:58;;;;;;;;;;;22.70;49.60;;;;;;5046323;28;20069;-63
2021/10/04 06:02:44;;;;;;;;;;;22.70;49.40;;;;;;5039290;28;19932;-64
2021/10/04 06:05:15;;;;;;;;;;;22.70;49.30;;;;;;5048033;28;20398;-67
2021/10/04 06:07:42;;;;;;;;;;;22.80;49.20;;;;;;5050205;28;19933;-63
2021/10/04 06:10:16;;;;;;;;;;;22.80;49.20;;;;;;5054346;28;19932;-65
2021/10/04 06:12:43;;;;;;;;;;;22.80;49.20;;;;;;5052559;28;20011;-64
2021/10/04 06:15:10;;;;;;;;;;;22.80;49.30;;;;;;5047642;28;19936;-64
2021/10/04 06:17:37;;;;;;;;;;;22.80;49.30;;;;;;5050791;28;19967;-65
2021/10/04 06:20:20;;;;;;;;;;;22.80;49.30;;;;;;5050347;28;20016;-63
2021/10/04 06:22:49;;;;;;;;;;;22.80;49.30;;;;;;5027379;28;19932;-63
2021/10/04 06:25:17;;;;;;;;;;;22.80;49.20;;;;;;5051701;28;20016;-63
2021/10/04 06:27:44;;;;;;;;;;;22.80;49.10;;;;;;5058224;28;20015;-64
2021/10/04 06:30:15;;;;;;;;;;;22.90;49.20;;;;;;5054587;28;19924;-63
2021/10/04 06:32:42;;;;;;;;;;;22.90;49.10;;;;;;5046248;28;19932;-65
2021/10/04 06:35:09;;;;;;;;;;;22.90;49.10;;;;;;5056330;28;19982;-64
2021/10/04 06:37:37;;;;;;;;;;;22.90;49.10;;;;;;5056414;28;19936;-64
2021/10/04 06:40:05;;;;;;;;;;;23.00;49.10;;;;;;5057900;28;19920;-65
2021/10/04 06:42:32;;;;;;;;;;;23.00;49.10;;;;;;5048906;28;19964;-67
2021/10/04 06:44:59;;;;;;;;;;;23.00;49.00;;;;;;5038092;28;20032;-64
2021/10/04 06:47:26;;;;;;;;;;;23.00;49.00;;;;;;5058598;28;19932;-65
2021/10/04 06:50:22;;;;;;;;;;;23.10;49.10;;;;;;5058751;28;20424;-64
2021/10/04 06:52:54;;;;;;;;;;;23.10;49.00;;;;;;5052829;28;19927;-61
2021/10/04 06:55:21;;;;;;;;;;;23.20;49.00;;;;;;5056004;28;20024;-61
2021/10/04 06:57:48;;;;;;;;;;;23.20;49.10;;;;;;5059629;28;19971;-63
2021/10/04 07:03:48;;;;;;;;;;;23.20;49.30;;;;;;5048633;28;19940;-63
2021/10/04 07:06:15;;;;;;;;;;;23.30;49.30;;;;;;5054658;28;20027;-63
2021/10/04 07:08:42;;;;;;;;;;;23.30;49.20;;;;;;5057146;28;20491;-64
2021/10/04 07:11:11;;;;;;;;;;;23.30;49.10;;;;;;5050838;28;20047;-62
2021/10/04 07:13:45;;;;;;;;;;;23.40;49.20;;;;;;5048571;28;19933;-63
2021/10/04 07:16:13;;;;;;;;;;;23.40;49.10;;;;;;5057714;28;19927;-62
2021/10/04 07:18:41;;;;;;;;;;;23.40;49.10;;;;;;5054446;28;19967;-67
2021/10/04 07:21:28;;;;;;;;;;;23.50;49.10;;;;;;5047312;28;20569;-63
2021/10/04 07:23:57;;;;;;;;;;;23.50;49.00;;;;;;5048757;28;19939;-63
2021/10/04 07:26:24;;;;;;;;;;;23.50;48.90;;;;;;5058863;28;20474;-63
2021/10/04 07:28:51;;;;;;;;;;;23.50;48.80;;;;;;5055659;28;19956;-63
2021/10/04 07:31:18;;;;;;;;;;;23.50;48.70;;;;;;5051972;28;20442;-63
2021/10/04 07:33:45;;;;;;;;;;;23.60;48.70;;;;;;5052521;28;19932;-66
2021/10/04 07:36:13;;;;;;;;;;;23.60;48.70;;;;;;5039928;28;20535;-63
2021/10/04 07:38:40;;;;;;;;;;;23.60;48.70;;;;;;5038057;28;20672;-63
2021/10/04 07:41:26;;;;;;;;;;;23.60;48.60;;;;;;5032287;28;19945;-63
2021/10/04 07:43:56;;;;;;;;;;;23.70;48.60;;;;;;5048556;28;19972;-65
2021/10/04 07:46:24;;;;;;;;;;;23.70;48.50;;;;;;5054425;28;19924;-65
2021/10/04 07:48:51;;;;;;;;;;;23.70;48.40;;;;;;5056555;28;20011;-63
2021/10/04 07:51:24;;;;;;;;;;;23.80;48.50;;;;;;5047503;28;19968;-63
2021/10/04 07:53:51;;;;;;;;;;;23.80;48.40;;;;;;5047923;28;19968;-68
2021/10/04 07:56:19;;;;;;;;;;;23.80;48.30;;;;;;5036760;28;21462;-65
2021/10/04 07:58:46;;;;;;;;;;;23.80;48.20;;;;;;5052931;28;19936;-65
2021/10/04 08:01:14;;;;;;;;;;;23.80;48.10;;;;;;5061476;28;20430;-64
2021/10/04 08:03:41;;;;;;;;;;;23.90;48.10;;;;;;5078940;28;19924;-65
2021/10/04 08:06:08;;;;;;;;;;;23.90;48.00;;;;;;5079273;28;19964;-65
2021/10/04 08:08:35;;;;;;;;;;;23.90;47.90;;;;;;5077442;28;19925;-67
2021/10/04 08:11:02;;;;;;;;;;;24.00;47.80;;;;;;5078546;28;19929;-65
2021/10/04 08:13:29;;;;;;;;;;;24.00;47.70;;;;;;5078866;28;19968;-65
2021/10/04 08:15:57;;;;;;;;;;;24.00;47.70;;;;;;5043913;28;20027;-65
2021/10/04 08:18:28;;;;;;;;;;;24.00;47.70;;;;;;5054402;28;19936;-65
2021/10/04 08:24:44;;;;;;;;;;;24.10;47.70;;;;;;5049659;28;19939;-68
2021/10/04 08:27:11;;;;;;;;;;;24.10;47.60;;;;;;5042443;28;19968;-68
2021/10/04 08:30:16;;;;;;;;;;;24.10;47.50;;;;;;5060312;28;20003;-63
2021/10/04 08:33:10;;;;;;;;;;;24.20;47.50;;;;;;5088589;28;19970;-64
2021/10/04 08:35:37;;;;;;;;;;;24.20;47.40;;;;;;5103399;28;20456;-65
2021/10/04 08:38:04;;;;;;;;;;;24.20;47.30;;;;;;5098946;28;19924;-64
2021/10/04 08:59:02;;;;;;;;;;;24.40;47.00;;;;;;5318010;22;19948;-63
2021/10/04 09:02:06;;;;;;;;;;;24.40;46.80;;;;;;5014179;28;19933;-65
2021/10/04 09:05:08;;;;;;;;;;;24.40;46.80;;;;;;5012483;28;19933;-62
2021/10/04 09:07:39;;;;;;;;;;;24.50;46.90;;;;;;5017673;28;20020;-69
2021/10/04 09:10:08;;;;;;;;;;;24.50;47.10;;;;;;5020286;28;19932;-66
2021/10/04 09:12:43;;;;;;;;;;;24.50;47.00;;;;;;5013617;28;20017;-67
2021/10/04 09:15:21;;;;;;;;;;;24.50;46.60;;;;;;4993093;28;19957;-67
2021/10/04 09:17:49;;;;;;;;;;;24.50;46.30;;;;;;5023116;28;19933;-69
2021/10/04 09:20:20;;;;;;;;;;;24.60;46.00;;;;;;5015762;28;19991;-67
2021/10/04 09:22:49;;;;;;;;;;;24.60;46.10;;;;;;5008080;28;19955;-66
2021/10/04 09:25:17;;;;;;;;;;;24.60;45.80;;;;;;5020698;28;19925;-68
2021/10/04 09:27:45;;;;;;;;;;;24.60;45.70;;;;;;5025021;28;19952;-67
2021/10/04 09:33:25;;;;;;;;;;;24.70;45.40;;;;;;5010695;28;20460;-69
2021/10/04 09:35:52;;;;;;;;;;;24.70;45.00;;;;;;5017137;28;19933;-69
2021/10/04 09:38:21;;;;;;;;;;;24.80;44.90;;;;;;5018536;28;19925;-66
2021/10/04 09:40:54;;;;;;;;;;;24.80;44.60;;;;;;5014581;28;19939;-64
2021/10/04 09:43:31;;;;;;;;;;;24.80;44.20;;;;;;5011563;28;19941;-67
2021/10/04 09:46:05;;;;;;;;;;;24.80;44.10;;;;;;5022466;28;19925;-74
2021/10/04 09:48:32;;;;;;;;;;;24.90;43.90;;;;;;5015757;28;20035;-70
2021/10/04 09:51:21;;;;;;;;;;;24.90;43.60;;;;;;5017069;28;20040;-72
2021/10/04 09:54:09;;;;;;;;;;;24.90;43.10;;;;;;5012763;28;20334;-68
2021/10/04 09:56:37;;;;;;;;;;;24.90;43.10;;;;;;5031821;28;19991;-68
2021/10/04 09:59:06;;;;;;;;;;;24.90;43.10;;;;;;5024198;28;19983;-68
2021/10/04 10:01:34;;;;;;;;;;;24.90;43.20;;;;;;5014037;28;20639;-67
2021/10/04 10:04:05;;;;;;;;;;;24.90;43.00;;;;;;5011236;28;20019;-69
2021/10/04 10:06:32;;;;;;;;;;;24.90;43.00;;;;;;5020996;28;19945;-69
2021/10/04 10:08:59;;;;;;;;;;;24.90;42.90;;;;;;5024382;28;19960;-70
2021/10/04 10:11:50;;;;;;;;;;;24.90;42.80;;;;;;5014494;28;19975;-73
2021/10/04 10:14:37;;;;;;;;;;;25.00;42.90;;;;;;5017023;28;19956;-67
2021/10/04 10:17:04;;;;;;;;;;;25.00;43.30;;;;;;5019480;28;20019;-74
2021/10/04 10:19:35;;;;;;;;;;;25.00;43.50;;;;;;5013778;28;20025;-69
2021/10/04 10:22:10;;;;;;;;;;;25.00;43.70;;;;;;5008067;28;19929;-70
2021/10/04 10:24:39;;;;;;;;;;;25.10;43.90;;;;;;5017483;28;19932;-72
2021/10/04 10:27:07;;;;;;;;;;;25.10;43.90;;;;;;5011036;28;19929;-72
2021/10/04 10:29:35;;;;;;;;;;;25.10;44.00;;;;;;5024494;28;19925;-70
2021/10/04 10:32:06;;;;;;;;;;;25.10;43.90;;;;;;5011257;28;19941;-72
2021/10/04 10:34:48;;;;;;;;;;;25.10;43.90;;;;;;5015797;28;19929;-70
2021/10/04 10:37:21;;;;;;;;;;;25.10;43.70;;;;;;5021426;28;19925;-69
2021/10/04 10:40:17;;;;;;;;;;;25.10;43.80;;;;;;5016167;28;20035;-70
2021/10/04 10:43:13;;;;;;;;;;;25.20;44.00;;;;;;5003368;28;19925;-71
2021/10/04 10:45:43;;;;;;;;;;;25.20;44.10;;;;;;5013614;28;20004;-70
2021/10/04 10:48:11;;;;;;;;;;;25.20;44.00;;;;;;5018326;28;20420;-69
2021/10/04 10:50:39;;;;;;;;;;;25.20;44.10;;;;;;5009629;28;19985;-70
2021/10/04 10:53:11;;;;;;;;;;;25.30;44.20;;;;;;5005423;28;20393;-72
2021/10/04 10:55:40;;;;;;;;;;;25.30;44.00;;;;;;5020094;28;19945;-71
2021/10/04 10:58:09;;;;;;;;;;;25.30;44.00;;;;;;5018954;28;19925;-73
2021/10/04 11:00:41;;;;;;;;;;;25.40;44.10;;;;;;5014717;28;19927;-69
2021/10/04 11:03:10;;;;;;;;;;;25.40;44.10;;;;;;5023298;28;20305;-68
2021/10/04 11:05:48;;;;;;;;;;;25.40;44.10;;;;;;5027103;28;19928;-72
2021/10/04 11:08:17;;;;;;;;;;;25.40;44.10;;;;;;5021181;28;19965;-73
2021/10/04 11:11:15;;;;;;;;;;;25.40;44.00;;;;;;5018883;28;19926;-72
2021/10/04 11:13:57;;;;;;;;;;;25.40;44.00;;;;;;5017105;28;19921;-74
2021/10/04 11:16:29;;;;;;;;;;;25.50;44.10;;;;;;5017348;28;20604;-67
2021/10/04 11:18:57;;;;;;;;;;;25.50;44.10;;;;;;5017760;28;19941;-68
2021/10/04 11:21:51;;;;;;;;;;;25.50;44.20;;;;;;5002144;28;19955;-67
2021/10/04 11:24:30;;;;;;;;;;;25.50;44.20;;;;;;5017324;28;20007;-65
2021/10/04 11:27:00;;;;;;;;;;;25.50;44.30;;;;;;5026387;28;19939;-67
2021/10/04 11:29:27;;;;;;;;;;;25.60;44.40;;;;;;5026881;28;19964;-67
2021/10/04 11:32:15;;;;;;;;;;;25.60;44.40;;;;;;5017331;28;20015;-69
2021/10/04 11:34:44;;;;;;;;;;;25.60;44.40;;;;;;5016810;28;20020;-66
2021/10/04 11:37:23;;;;;;;;;;;25.60;44.40;;;;;;5018345;28;20805;-68
2021/10/04 11:39:50;;;;;;;;;;;25.70;44.40;;;;;;5015340;28;20798;-66
2021/10/04 11:42:21;;;;;;;;;;;25.70;44.40;;;;;;5016415;28;19972;-69
2021/10/04 11:44:48;;;;;;;;;;;25.70;44.40;;;;;;5024548;28;20055;-69
2021/10/04 11:47:15;;;;;;;;;;;25.70;44.40;;;;;;5026048;28;19953;-72
2021/10/04 11:53:23;;;;;;;;;;;25.70;44.20;;;;;;5021866;28;19948;-67
2021/10/04 11:55:57;;;;;;;;;;;25.80;44.40;;;;;;5018351;28;19959;-72
2021/10/04 11:58:26;;;;;;;;;;;25.80;44.50;;;;;;5021805;28;20011;-68
2021/10/04 12:00:53;;;;;;;;;;;25.80;44.30;;;;;;5017533;28;20020;-69
2021/10/04 12:03:28;;;;;;;;;;;25.90;44.20;;;;;;5037947;28;19925;-71
2021/10/04 12:05:56;;;;;;;;;;;25.90;44.10;;;;;;5040613;28;19948;-72
2021/10/04 12:08:23;;;;;;;;;;;25.80;43.80;;;;;;5042551;28;19925;-70
2021/10/04 12:11:07;;;;;;;;;;;25.80;43.80;;;;;;5027950;28;20036;-70
2021/10/04 12:13:58;;;;;;;;;;;25.80;43.70;;;;;;5019679;28;19926;-70
2021/10/04 12:16:28;;;;;;;;;;;25.80;43.60;;;;;;5015542;28;19992;-72
2021/10/04 12:18:57;;;;;;;;;;;25.80;43.70;;;;;;5018053;28;20017;-70
2021/10/04 12:21:56;;;;;;;;;;;25.90;43.70;;;;;;5027378;28;20041;-66
2021/10/04 12:24:28;;;;;;;;;;;25.90;43.70;;;;;;5010090;28;19941;-67
2021/10/04 12:27:09;;;;;;;;;;;25.90;44.00;;;;;;5017922;28;19944;-66
2021/10/04 12:30:12;;;;;;;;;;;25.90;44.00;;;;;;5022106;28;19987;-66
2021/10/04 12:33:03;;;;;;;;;;;25.90;44.20;;;;;;5022909;28;19932;-65
2021/10/04 12:35:30;;;;;;;;;;;26.00;44.50;;;;;;5010596;28;19932;-68
2021/10/04 12:38:00;;;;;;;;;;;26.00;44.40;;;;;;5015916;28;19936;-68
2021/10/04 12:41:03;;;;;;;;;;;26.00;44.10;;;;;;5021799;28;20324;-69
2021/10/04 12:44:14;;;;;;;;;;;26.00;44.20;;;;;;5010531;28;19982;-67
2021/10/04 12:47:02;;;;;;;;;;;26.00;44.50;;;;;;5016336;28;20016;-66
2021/10/04 12:49:31;;;;;;;;;;;26.00;44.50;;;;;;5017693;28;20016;-71
2021/10/04 12:52:14;;;;;;;;;;;26.10;44.50;;;;;;5008709;28;19927;-70
2021/10/04 12:54:52;;;;;;;;;;;26.10;44.50;;;;;;5007856;28;19957;-70
2021/10/04 12:57:27;;;;;;;;;;;26.10;44.20;;;;;;5014755;28;20083;-70
2021/10/04 13:00:25;;;;;;;;;;;26.10;43.90;;;;;;5013680;28;19933;-73
2021/10/04 13:03:28;;;;;;;;;;;26.10;44.20;;;;;;5010151;28;20199;-69
2021/10/04 13:06:03;;;;;;;;;;;26.10;44.50;;;;;;5015185;28;19932;-72
2021/10/04 13:08:30;;;;;;;;;;;26.10;44.80;;;;;;5022852;28;20031;-65
2021/10/04 13:14:05;;;;;;;;;;;26.20;45.20;;;;;;5001307;28;19933;-74
2021/10/04 13:16:32;;;;;;;;;;;26.20;45.20;;;;;;5020967;28;19933;-74
2021/10/04 13:19:00;;;;;;;;;;;26.20;45.10;;;;;;5023980;28;20087;-67
2021/10/04 13:21:26;;;;;;;;;;;26.20;44.90;;;;;;5019383;28;20019;-70
2021/10/04 13:23:54;;;;;;;;;;;26.20;44.90;;;;;;5017126;28;19940;-73
2021/10/04 13:26:23;;;;;;;;;;;26.30;44.90;;;;;;5023922;28;20025;-71
2021/10/04 13:28:50;;;;;;;;;;;26.30;44.70;;;;;;5025937;28;20538;-70
2021/10/04 13:31:17;;;;;;;;;;;26.30;44.40;;;;;;5015315;28;20275;-67
2021/10/04 13:33:46;;;;;;;;;;;26.30;44.40;;;;;;5012683;28;19939;-69
2021/10/04 13:36:14;;;;;;;;;;;26.30;44.30;;;;;;5023038;28;20893;-68
2021/10/04 13:38:41;;;;;;;;;;;26.30;44.30;;;;;;5025244;28;20017;-70
2021/10/04 13:41:09;;;;;;;;;;;26.30;44.30;;;;;;5016090;28;20002;-72
2021/10/04 13:43:36;;;;;;;;;;;26.30;43.90;;;;;;5016911;28;19933;-71
2021/10/04 13:46:03;;;;;;;;;;;26.40;44.40;;;;;;5024930;28;20378;-68
2021/10/04 13:48:35;;;;;;;;;;;26.30;44.10;;;;;;5023712;28;20453;-70
2021/10/04 13:51:16;;;;;;;;;;;26.30;44.10;;;;;;5017644;28;19939;-73
2021/10/04 13:53:48;;;;;;;;;;;26.40;44.10;;;;;;5015656;28;19926;-69
2021/10/04 13:56:16;;;;;;;;;;;26.40;44.10;;;;;;5021827;28;19972;-64
2021/10/04 13:58:44;;;;;;;;;;;26.40;44.10;;;;;;5021170;28;20887;-65
2021/10/04 14:01:11;;;;;;;;;;;26.40;44.00;;;;;;5015912;28;20055;-66
2021/10/04 14:03:38;;;;;;;;;;;26.40;44.00;;;;;;5017119;28;19921;-67
2021/10/04 14:06:05;;;;;;;;;;;26.40;44.00;;;;;;5022965;28;19983;-63
2021/10/04 14:08:32;;;;;;;;;;;26.40;43.90;;;;;;5021907;28;20642;-65
2021/10/04 14:14:17;;;;;;;;;;;26.40;44.00;;;;;;5020743;28;20013;-67
2021/10/04 14:16:44;;;;;;;;;;;26.40;44.10;;;;;;5019288;28;19929;-65
2021/10/04 14:19:13;;;;;;;;;;;26.40;43.90;;;;;;5021230;28;19925;-65
2021/10/04 14:21:40;;;;;;;;;;;26.40;43.80;;;;;;5015526;28;19932;-66
2021/10/04 14:24:08;;;;;;;;;;;26.40;43.90;;;;;;5016696;28;19944;-64
2021/10/04 14:26:35;;;;;;;;;;;26.40;43.90;;;;;;5021779;28;19929;-64
2021/10/04 14:29:02;;;;;;;;;;;26.40;44.00;;;;;;5018922;28;20479;-64
2021/10/04 14:31:30;;;;;;;;;;;26.40;44.00;;;;;;5006472;28;19922;-67
2021/10/04 14:33:57;;;;;;;;;;;26.40;44.10;;;;;;5036579;28;19925;-68
2021/10/04 14:36:24;;;;;;;;;;;26.40;44.20;;;;;;5036520;28;19969;-72
2021/10/04 14:38:55;;;;;;;;;;;26.40;44.20;;;;;;5036216;28;19979;-71
2021/10/04 14:41:24;;;;;;;;;;;26.40;44.10;;;;;;5031717;28;19921;-69
2021/10/04 14:43:51;;;;;;;;;;;26.40;44.20;;;;;;5027972;28;20494;-69
2021/10/04 14:46:18;;;;;;;;;;;26.30;44.10;;;;;;5028776;28;19964;-68
2021/10/04 14:48:45;;;;;;;;;;;26.40;44.20;;;;;;5026019;28;19924;-72
2021/10/04 14:51:12;;;;;;;;;;;26.30;44.10;;;;;;5019481;28;20020;-68
2021/10/04 14:53:39;;;;;;;;;;;26.30;44.10;;;;;;5019311;28;19975;-71
2021/10/04 14:56:06;;;;;;;;;;;26.20;44.10;;;;;;5025397;28;19925;-68
2021/10/04 14:58:33;;;;;;;;;;;26.20;44.10;;;;;;5024508;28;19931;-68
2021/10/04 15:01:01;;;;;;;;;;;26.20;44.10;;;;;;5020874;28;19925;-68
2021/10/04 15:03:29;;;;;;;;;;;26.20;44.20;;;;;;5024368;28;19929;-68
2021/10/04 15:05:56;;;;;;;;;;;26.20;44.30;;;;;;5026726;28;19980;-68
2021/10/04 15:08:23;;;;;;;;;;;26.10;44.30;;;;;;5030501;28;19929;-71
2021/10/04 15:10:50;;;;;;;;;;;26.10;44.40;;;;;;5020973;28;20135;-71
2021/10/04 15:13:17;;;;;;;;;;;26.10;44.50;;;;;;5015479;28;20016;-72
2021/10/04 15:15:44;;;;;;;;;;;26.10;44.60;;;;;;5028713;28;20023;-72
2021/10/04 15:18:11;;;;;;;;;;;26.00;44.70;;;;;;5028292;28;19925;-71
2021/10/04 15:20:40;;;;;;;;;;;26.00;44.80;;;;;;5023616;28;19967;-71
2021/10/04 15:23:07;;;;;;;;;;;26.00;45.00;;;;;;5024678;28;19933;-71
2021/10/04 15:25:35;;;;;;;;;;;26.00;45.30;;;;;;5027737;28;20023;-71